This is the latest recevied weather packets stored in our database for station/object EA1HTW-13. If no packets are shown the sender has not sent any weather packets the latest 1 day(s).
| Time | Temp. | Humidity | Pressure | Rain* | Wind** | Luminosity | Snow |
|---|---|---|---|---|---|---|---|
| 1778007915 | 15.56° C | 66% | 1009.5 hPa | 0 mm | 0 m/s | - | - |
| 1778007375 | 16.11° C | 66% | 1009.5 hPa | 0 mm | 0.45 m/s, 0° | - | - |
| 1778006835 | 16.11° C | 66% | 1009.4 hPa | 0 mm | 0.45 m/s, 0° | - | - |
| 1778006295 | 16.11° C | 65% | 1009.5 hPa | 0 mm | 0 m/s | - | - |
| 1778005755 | 16.67° C | 65% | 1009.5 hPa | 0 mm | 0.45 m/s, 0° | - | - |
| 1778005214 | 16.67° C | 64% | 1009.5 hPa | 0 mm | 0.45 m/s, 0° | - | - |
| 1778004674 | 16.67° C | 64% | 1009.6 hPa | 0 mm | 0.45 m/s, 0° | - | - |
| 1778004135 | 16.67° C | 64% | 1009.7 hPa | 0 mm | 0.89 m/s, 0° | - | - |
| 1778003595 | 16.67° C | 65% | 1009.7 hPa | 0 mm | 0.89 m/s, 0° | - | - |
| 1778003054 | 17.22° C | 64% | 1009.4 hPa | 0 mm | 0.45 m/s, 0° | - | - |
| 1778002515 | 17.22° C | 64% | 1009.6 hPa | 0 mm | 0.45 m/s, 0° | - | - |
| 1778001975 | 17.78° C | 60% | 1009.7 hPa | 0 mm | 0.45 m/s, 0° | - | - |
| 1778001435 | 17.78° C | 60% | 1009.8 hPa | 0 mm | 0.45 m/s, 0° | - | - |
| 1778000894 | 17.22° C | 62% | 1009.7 hPa | 0 mm | 0.45 m/s, 0° | - | - |
| 1778000355 | 17.22° C | 59% | 1009.6 hPa | 0 mm | 1.34 m/s, 0° | - | - |
| 1777999815 | 17.78° C | 58% | 1009.6 hPa | 0 mm | 0.89 m/s, 0° | - | - |
| 1777999275 | 18.33° C | 56% | 1009.7 hPa | 0 mm | 0.89 m/s, 0° | - | - |
| 1777998733 | 18.33° C | 56% | 1009.5 hPa | 0 mm | 0.45 m/s, 0° | - | - |
| 1777998195 | 17.78° C | 58% | 1009.6 hPa | 0 mm | 0.45 m/s, 0° | - | - |
| 1777997655 | 17.78° C | 57% | 1009.6 hPa | 0 mm | 0.45 m/s, 0° | - | - |
| 1777997115 | 18.33° C | 55% | 1009.6 hPa | 0 mm | 0.45 m/s, 0° | - | - |
| 1777996575 | 18.89° C | 51% | 1009.7 hPa | 0 mm | 0.45 m/s, 0° | - | - |
| 1777996035 | 20° C | 49% | 1009.7 hPa | 0 mm | 0 m/s | - | - |
| 1777995495 | 20.56° C | 46% | 1009.8 hPa | 0 mm | 0.45 m/s, 0° | - | - |
| 1777994954 | 20° C | 48% | 1009.6 hPa | 0 mm | 0.45 m/s, 0° | - | - |
* Rain latest hour (hover to see other rain measurements)
** Current wind speed in m/s (hover to see current wind gust speed)